Time;durP1;ratioP1;P1;durP2;ratioP2;P2;SDS_P1;SDS_P2;PMS_P1;PMS_P2;Temp;Humidity;BMP_temperature;BMP_pressure;BME280_temperature;BME280_humidity;BME280_pressure;Samples;Min_cycle;Max_cycle;Signal;HPM_P1;HPM_P2
2022/09/06 00:00:14;;;;;;;8.40;4.72;;;21.20;99.90;;;;;;5110514;27;20949;-78
2022/09/06 00:02:40;;;;;;;6.75;4.70;;;21.70;99.90;;;;;;5116024;27;20503;-79
2022/09/06 00:05:07;;;;;;;8.15;5.03;;;21.60;99.90;;;;;;5097464;28;20862;-79
2022/09/06 00:07:32;;;;;;;8.73;5.05;;;21.30;99.90;;;;;;5101543;28;20930;-78
2022/09/06 00:09:58;;;;;;;8.60;4.90;;;21.20;99.90;;;;;;5079268;28;20427;-79
2022/09/06 00:12:24;;;;;;;9.43;4.83;;;21.20;99.90;;;;;;5086740;27;20420;-78
2022/09/06 00:14:50;;;;;;;9.20;4.85;;;21.60;99.90;;;;;;5114952;27;20766;-78
2022/09/06 00:17:17;;;;;;;8.32;5.07;;;21.10;99.90;;;;;;5097944;27;20419;-78
2022/09/06 00:19:43;;;;;;;9.55;5.20;;;21.50;99.90;;;;;;5083660;28;20456;-78
2022/09/06 00:22:09;;;;;;;8.13;5.03;;;20.90;99.90;;;;;;5109138;27;20956;-79
2022/09/06 00:24:36;;;;;;;6.70;5.07;;;21.30;99.90;;;;;;5114620;27;20491;-79
2022/09/06 00:27:03;;;;;;;8.60;4.70;;;21.00;99.90;;;;;;5117653;27;20430;-79
2022/09/06 00:29:28;;;;;;;10.07;5.18;;;21.40;99.90;;;;;;5100482;27;20402;-79
2022/09/06 00:31:54;;;;;;;7.45;4.70;;;21.00;99.90;;;;;;5110036;27;20423;-78
2022/09/06 00:34:20;;;;;;;8.43;5.10;;;21.20;99.90;;;;;;5086886;27;20419;-78
2022/09/06 00:36:45;;;;;;;7.20;4.75;;;21.20;99.90;;;;;;5099973;27;20553;-77
2022/09/06 00:39:11;;;;;;;9.10;5.13;;;21.10;99.90;;;;;;5083481;27;20399;-77
2022/09/06 00:41:37;;;;;;;7.37;5.40;;;20.90;99.90;;;;;;5087246;27;20418;-77
2022/09/06 00:44:03;;;;;;;7.43;5.13;;;21.00;99.90;;;;;;5062318;27;20410;-77
2022/09/06 00:46:30;;;;;;;10.07;5.30;;;20.90;99.90;;;;;;5108556;28;20444;-77
2022/09/06 00:49:03;;;;;;;7.82;4.90;;;20.90;99.90;;;;;;5087594;28;20768;-78
2022/09/06 00:51:31;;;;;;;8.20;5.45;;;21.00;99.90;;;;;;5097231;27;20442;-76
2022/09/06 00:54:00;;;;;;;8.63;5.47;;;20.70;99.90;;;;;;5085501;27;20438;-77
2022/09/06 00:56:27;;;;;;;6.50;5.15;;;20.60;99.90;;;;;;5090912;27;20410;-77
2022/09/06 00:58:53;;;;;;;9.40;5.22;;;20.70;99.90;;;;;;5092334;28;20412;-77
2022/09/06 01:01:19;;;;;;;6.78;5.43;;;20.60;99.90;;;;;;5106328;27;20418;-77
2022/09/06 01:03:45;;;;;;;9.25;5.60;;;20.70;99.90;;;;;;5113077;27;20411;-77
2022/09/06 01:06:20;;;;;;;10.18;5.68;;;20.60;99.90;;;;;;5093301;28;20517;-76
2022/09/06 01:08:58;;;;;;;8.23;5.40;;;20.60;99.90;;;;;;5093070;28;20401;-76
2022/09/06 01:11:33;;;;;;;12.20;5.60;;;20.50;99.90;;;;;;5102274;27;20826;-76
2022/09/06 01:14:03;;;;;;;10.98;5.60;;;20.50;99.90;;;;;;5098466;28;20433;-76
2022/09/06 01:16:51;;;;;;;9.27;6.13;;;20.40;99.90;;;;;;5096140;28;20436;-76
2022/09/06 01:19:28;;;;;;;9.23;6.18;;;20.30;99.90;;;;;;5097571;27;20419;-76
2022/09/06 01:22:07;;;;;;;11.47;6.07;;;20.30;99.90;;;;;;5089622;28;20412;-76
2022/09/06 01:24:51;;;;;;;7.85;5.70;;;20.40;99.90;;;;;;5086966;27;20485;-77
2022/09/06 01:27:28;;;;;;;7.65;5.70;;;20.50;99.90;;;;;;5108178;28;20925;-77
2022/09/06 01:29:57;;;;;;;8.02;5.82;;;20.40;99.90;;;;;;5098350;27;20430;-77
2022/09/06 01:32:29;;;;;;;13.77;5.88;;;20.30;99.90;;;;;;5113412;27;20451;-77
2022/09/06 01:35:18;;;;;;;7.78;5.03;;;20.30;99.90;;;;;;5110756;27;20917;-77
2022/09/06 01:37:43;;;;;;;8.80;5.30;;;20.60;99.90;;;;;;5112895;27;20419;-77
2022/09/06 01:40:09;;;;;;;9.43;5.60;;;20.50;99.90;;;;;;5065411;27;20912;-77
2022/09/06 01:42:37;;;;;;;9.82;5.78;;;20.40;99.90;;;;;;5087188;28;20507;-77
2022/09/06 01:45:17;;;;;;;7.13;5.30;;;22.10;99.90;;;;;;5108349;27;20513;-77
2022/09/06 01:48:05;;;;;;;8.68;5.75;;;20.00;99.90;;;;;;5107689;27;20418;-78
2022/09/06 01:50:48;;;;;;;9.88;5.70;;;20.00;99.90;;;;;;5115462;27;20402;-77
2022/09/06 01:53:26;;;;;;;10.88;5.65;;;20.00;99.90;;;;;;5113779;27;20478;-79
2022/09/06 01:55:55;;;;;;;9.23;5.60;;;;;;;;;;5112167;27;20422;-78
2022/09/06 01:58:42;;;;;;;9.35;5.80;;;19.90;99.90;;;;;;5090233;27;20419;-77
2022/09/06 02:01:19;;;;;;;10.27;6.18;;;19.90;99.90;;;;;;5107397;27;20410;-78
2022/09/06 02:04:14;;;;;;;7.35;5.82;;;19.90;99.90;;;;;;5112737;27;20425;-78
2022/09/06 02:06:45;;;;;;;8.38;5.72;;;20.10;99.90;;;;;;5115173;27;20411;-77
2022/09/06 02:09:16;;;;;;;6.53;5.80;;;20.10;99.90;;;;;;5112820;27;20498;-77
2022/09/06 02:11:53;;;;;;;7.97;5.80;;;20.10;99.90;;;;;;5099562;28;20423;-77
2022/09/06 02:14:26;;;;;;;9.35;6.13;;;20.10;99.90;;;;;;5078236;28;20401;-78
2022/09/06 02:16:55;;;;;;;8.18;5.88;;;20.10;99.90;;;;;;5060897;28;20428;-77
2022/09/06 02:19:26;;;;;;;7.10;5.38;;;19.90;99.90;;;;;;5068953;28;20582;-77
2022/09/06 02:21:56;;;;;;;9.13;6.03;;;19.90;99.90;;;;;;5060434;28;20935;-77
2022/09/06 02:24:28;;;;;;;11.87;6.30;;;20.00;99.90;;;;;;5067968;28;20506;-77
2022/09/06 02:26:54;;;;;;;11.20;6.88;;;19.70;99.90;;;;;;5034559;28;20401;-76
2022/09/06 02:29:20;;;;;;;7.50;6.40;;;19.70;99.90;;;;;;5034156;28;20756;-75
2022/09/06 02:32:00;;;;;;;9.00;6.28;;;19.50;99.90;;;;;;5064505;28;20451;-76
2022/09/06 02:34:26;;;;;;;10.05;6.88;;;19.70;99.90;;;;;;5061136;28;20431;-76
2022/09/06 02:36:54;;;;;;;7.57;6.38;;;19.50;99.90;;;;;;5034858;28;20762;-77
2022/09/06 02:39:20;;;;;;;9.77;6.43;;;19.40;99.90;;;;;;5052707;28;20940;-77
2022/09/06 02:41:47;;;;;;;9.55;6.88;;;19.20;99.90;;;;;;5063232;28;20526;-76
2022/09/06 02:44:13;;;;;;;10.77;6.72;;;19.10;99.90;;;;;;5070896;28;20903;-76
2022/09/06 02:46:38;;;;;;;8.18;6.05;;;19.10;99.90;;;;;;5070854;28;20403;-77
2022/09/06 02:49:04;;;;;;;8.98;6.10;;;19.00;99.90;;;;;;5051217;28;20435;-76
2022/09/06 02:51:34;;;;;;;7.43;6.28;;;18.80;99.90;;;;;;5053034;28;20403;-76
2022/09/06 02:54:00;;;;;;;10.07;6.50;;;;;;;;;;5049880;28;20416;-76
2022/09/06 02:56:26;;;;;;;8.98;6.40;;;18.80;99.90;;;;;;5059136;28;20434;-76
2022/09/06 02:58:51;;;;;;;10.63;6.43;;;19.00;99.90;;;;;;5060138;28;20423;-75
2022/09/06 03:01:17;;;;;;;11.47;6.50;;;18.90;99.90;;;;;;5033230;28;20424;-76
2022/09/06 03:03:43;;;;;;;8.75;6.32;;;19.20;99.90;;;;;;5036721;28;20901;-76
2022/09/06 03:06:08;;;;;;;14.55;6.80;;;19.10;99.90;;;;;;5050378;28;20448;-76
2022/09/06 03:08:35;;;;;;;9.30;6.63;;;19.20;99.90;;;;;;5049764;28;20475;-76
2022/09/06 03:11:01;;;;;;;10.95;7.22;;;;;;;;;;5056799;28;20419;-76
2022/09/06 03:13:27;;;;;;;9.40;6.70;;;19.00;99.90;;;;;;5038422;28;20422;-76
2022/09/06 03:15:55;;;;;;;9.90;6.67;;;;;;;;;;5053199;28;20488;-76
2022/09/06 03:18:21;;;;;;;9.20;7.00;;;;;;;;;;5073656;28;20423;-75
2022/09/06 03:20:51;;;;;;;10.73;6.70;;;19.00;99.90;;;;;;5078332;28;20421;-75
2022/09/06 03:23:18;;;;;;;12.47;7.00;;;18.90;99.90;;;;;;5093567;28;20496;-76
2022/09/06 03:25:43;;;;;;;7.70;6.75;;;19.00;99.90;;;;;;5079139;28;20407;-76
2022/09/06 03:28:09;;;;;;;10.60;6.97;;;18.90;99.90;;;;;;5073992;28;20419;-76
2022/09/06 03:30:35;;;;;;;10.00;6.65;;;18.90;99.90;;;;;;5078521;28;20421;-76
2022/09/06 03:33:01;;;;;;;9.63;6.63;;;19.10;99.90;;;;;;5078840;28;20442;-77
2022/09/06 03:35:26;;;;;;;8.70;6.63;;;19.00;99.90;;;;;;5074163;28;20446;-77
2022/09/06 03:37:52;;;;;;;10.00;6.80;;;19.10;99.90;;;;;;5073923;28;20423;-77
2022/09/06 03:40:18;;;;;;;9.30;6.80;;;18.80;99.90;;;;;;5090943;28;20984;-77
2022/09/06 03:42:45;;;;;;;9.52;6.88;;;19.00;99.90;;;;;;5062485;28;20423;-77
2022/09/06 03:45:11;;;;;;;9.07;6.85;;;18.70;99.90;;;;;;5074013;28;20400;-76
2022/09/06 03:47:37;;;;;;;10.02;6.72;;;19.00;99.90;;;;;;5060257;28;20423;-77
2022/09/06 03:50:03;;;;;;;9.75;6.60;;;18.80;99.90;;;;;;5073289;28;20754;-77
2022/09/06 03:52:29;;;;;;;8.77;6.78;;;;;;;;;;5068838;28;20569;-77
2022/09/06 03:54:55;;;;;;;8.55;6.95;;;18.60;99.90;;;;;;5090463;28;20453;-76
2022/09/06 03:57:21;;;;;;;10.77;6.93;;;;;;;;;;5057849;28;20477;-77
2022/09/06 03:59:47;;;;;;;8.23;6.80;;;18.70;99.90;;;;;;5090847;28;20885;-78
2022/09/06 04:02:13;;;;;;;7.93;6.82;;;18.70;99.90;;;;;;5057415;28;20435;-78
2022/09/06 04:04:38;;;;;;;9.20;6.97;;;18.70;99.90;;;;;;5090155;28;20429;-77
2022/09/06 04:07:04;;;;;;;7.87;7.03;;;;;;;;;;5077160;28;20398;-77
2022/09/06 04:09:30;;;;;;;8.77;7.10;;;18.70;99.90;;;;;;5060994;28;20457;-77
2022/09/06 04:11:56;;;;;;;10.37;6.90;;;18.80;99.90;;;;;;5073398;28;20474;-77
2022/09/06 04:14:21;;;;;;;9.98;6.70;;;18.60;99.90;;;;;;5057153;28;20589;-76
2022/09/06 04:16:47;;;;;;;10.70;6.93;;;;;;;;;;5053443;28;20429;-77
2022/09/06 04:19:14;;;;;;;10.30;7.13;;;;;;;;;;5052951;28;20423;-77
2022/09/06 04:21:39;;;;;;;11.40;6.97;;;18.70;99.90;;;;;;5073540;28;20415;-77
2022/09/06 04:24:05;;;;;;;9.05;7.15;;;18.70;99.90;;;;;;5058133;28;20415;-77
2022/09/06 04:26:32;;;;;;;14.70;7.82;;;;;;;;;;5036811;28;20409;-77
2022/09/06 04:28:58;;;;;;;9.80;7.45;;;;;;;;;;5079608;28;20418;-77
2022/09/06 04:31:24;;;;;;;13.27;8.47;;;;;;;;;;5091325;28;20417;-78
2022/09/06 04:33:49;;;;;;;14.18;8.40;;;18.80;99.90;;;;;;5047026;28;20917;-81
2022/09/06 04:36:15;;;;;;;10.27;8.17;;;18.60;99.90;;;;;;5080742;28;20440;-81
2022/09/06 04:38:43;;;;;;;9.80;8.70;;;18.60;99.90;;;;;;5066504;28;20457;-82
2022/09/06 04:41:10;;;;;;;10.48;8.27;;;;;;;;;;5051671;28;20479;-82
2022/09/06 04:43:36;;;;;;;10.17;8.67;;;18.30;99.90;;;;;;5074827;28;20929;-83
2022/09/06 04:46:29;;;;;;;10.07;8.63;;;18.40;99.90;;;;;;5072396;28;20460;-83
2022/09/06 04:48:55;;;;;;;11.98;9.02;;;18.60;99.90;;;;;;5092368;28;20402;-85
2022/09/06 04:51:23;;;;;;;10.38;9.27;;;18.40;99.90;;;;;;5037368;28;20409;-85
2022/09/06 04:53:49;;;;;;;13.20;9.55;;;18.20;99.90;;;;;;5047979;28;20428;-84
2022/09/06 04:56:17;;;;;;;11.52;9.45;;;;;;;;;;5085711;28;20421;-85
2022/09/06 04:58:43;;;;;;;12.07;10.33;;;18.60;99.90;;;;;;5085987;28;20428;-84
2022/09/06 05:01:10;;;;;;;11.75;9.50;;;18.30;99.90;;;;;;5066236;28;20542;-84
2022/09/06 05:03:36;;;;;;;13.45;9.82;;;;;;;;;;5062184;28;20410;-83
2022/09/06 05:06:24;;;;;;;13.93;9.68;;;18.40;99.90;;;;;;5076641;28;20965;-81
2022/09/06 05:08:50;;;;;;;10.93;9.70;;;18.70;99.90;;;;;;5081360;28;20413;-82
2022/09/06 05:11:16;;;;;;;11.15;9.73;;;18.60;99.90;;;;;;5073241;28;20457;-81
2022/09/06 05:13:43;;;;;;;11.75;9.40;;;18.40;99.90;;;;;;5054063;28;20808;-82
2022/09/06 05:16:09;;;;;;;12.38;9.55;;;18.40;99.90;;;;;;5070589;28;20408;-84
2022/09/06 05:18:35;;;;;;;10.38;9.27;;;18.00;99.90;;;;;;5109493;28;20420;-84
2022/09/06 05:21:01;;;;;;;12.50;9.20;;;;;;;;;;5074371;28;20416;-83
2022/09/06 05:23:28;;;;;;;11.70;9.52;;;;;;;;;;5074506;28;20506;-84
2022/09/06 05:25:54;;;;;;;12.40;9.70;;;;;;;;;;5094536;28;20416;-80
2022/09/06 05:28:20;;;;;;;10.98;9.73;;;18.00;99.90;;;;;;5076279;28;20832;-78
2022/09/06 05:30:46;;;;;;;10.63;9.45;;;;;;;;;;5054365;28;20506;-81
2022/09/06 05:33:17;;;;;;;13.20;10.05;;;17.90;99.90;;;;;;5072451;28;20905;-80
2022/09/06 05:35:43;;;;;;;14.88;10.40;;;;;;;;;;5092246;28;20431;-81
2022/09/06 05:38:09;;;;;;;12.32;10.48;;;17.70;99.90;;;;;;5073847;28;20430;-81
2022/09/06 05:40:35;;;;;;;12.23;10.83;;;;;;;;;;5073544;28;20422;-80
2022/09/06 05:43:01;;;;;;;13.63;10.77;;;;;;;;;;5102083;28;20426;-78
2022/09/06 05:45:27;;;;;;;11.95;10.65;;;;;;;;;;5105689;28;20424;-77
2022/09/06 05:47:53;;;;;;;12.35;10.80;;;;;;;;;;5064173;28;20429;-77
2022/09/06 05:50:20;;;;;;;12.63;11.15;;;;;;;;;;5087467;28;20760;-76
2022/09/06 05:52:46;;;;;;;13.70;11.13;;;;;;;;;;5087141;28;20814;-75
2022/09/06 05:55:12;;;;;;;14.18;10.85;;;;;;;;;;5077280;28;20414;-75
2022/09/06 05:57:38;;;;;;;12.38;11.00;;;;;;;;;;5091429;28;20509;-76
2022/09/06 06:00:05;;;;;;;13.23;10.98;;;;;;;;;;5090440;28;20791;-76
2022/09/06 06:02:31;;;;;;;13.27;11.10;;;17.90;99.90;;;;;;5082335;28;20417;-76
2022/09/06 06:04:57;;;;;;;11.60;10.40;;;;;;;;;;5086266;28;20432;-76
2022/09/06 06:07:23;;;;;;;15.55;11.15;;;;;;;;;;5092006;28;20419;-76
2022/09/06 06:09:49;;;;;;;11.88;10.27;;;;;;;;;;5061162;28;20429;-77
2022/09/06 06:12:16;;;;;;;13.02;10.50;;;;;;;;;;5091468;28;20394;-77
2022/09/06 06:14:42;;;;;;;11.15;10.05;;;;;;;;;;5109505;28;20432;-76
2022/09/06 06:17:08;;;;;;;12.77;11.13;;;;;;;;;;5082685;28;20488;-77
2022/09/06 06:19:36;;;;;;;11.80;10.60;;;18.00;99.90;;;;;;5092321;28;20754;-77
2022/09/06 06:22:02;;;;;;;12.02;10.38;;;;;;;;;;5073747;28;20461;-76
2022/09/06 06:24:28;;;;;;;13.05;11.30;;;;;;;;;;5107366;28;20420;-76
2022/09/06 06:26:54;;;;;;;12.73;11.23;;;;;;;;;;5112471;28;20813;-76
2022/09/06 06:29:20;;;;;;;14.45;11.50;;;;;;;;;;5101566;28;20430;-76
2022/09/06 06:31:46;;;;;;;14.40;11.40;;;;;;;;;;5071775;28;20430;-77
2022/09/06 06:34:13;;;;;;;12.83;11.53;;;;;;;;;;5089539;28;20445;-76
2022/09/06 06:36:39;;;;;;;13.82;12.05;;;;;;;;;;5097379;28;20777;-76
2022/09/06 06:39:07;;;;;;;13.10;11.60;;;17.80;99.90;;;;;;5094364;28;20443;-77
2022/09/06 06:41:33;;;;;;;13.07;11.55;;;;;;;;;;5090881;28;20412;-77
2022/09/06 06:44:01;;;;;;;13.17;11.37;;;17.80;99.90;;;;;;5096513;28;20466;-76
2022/09/06 06:46:30;;;;;;;14.77;12.10;;;17.60;99.90;;;;;;5104104;28;20432;-76
2022/09/06 06:48:56;;;;;;;13.32;12.02;;;;;;;;;;5102785;28;20406;-76
2022/09/06 06:51:24;;;;;;;14.18;12.05;;;17.90;99.90;;;;;;5067230;28;20760;-77
2022/09/06 06:53:50;;;;;;;13.13;11.77;;;;;;;;;;5068785;28;20488;-77
2022/09/06 06:56:27;;;;;;;13.60;12.13;;;;;;;;;;5092655;28;20422;-77
2022/09/06 06:58:56;;;;;;;13.20;11.90;;;17.90;99.90;;;;;;5070173;28;20805;-78
2022/09/06 07:01:23;;;;;;;14.43;11.82;;;;;;;;;;5059236;28;20585;-76
2022/09/06 07:03:49;;;;;;;13.70;11.63;;;;;;;;;;5095780;28;20429;-77
2022/09/06 07:06:16;;;;;;;13.60;12.13;;;18.10;99.90;;;;;;5082055;28;20422;-77
2022/09/06 07:08:42;;;;;;;13.45;11.77;;;;;;;;;;5095264;28;20420;-77
2022/09/06 07:11:10;;;;;;;14.00;11.85;;;18.30;99.90;;;;;;5111152;28;20455;-76
2022/09/06 07:13:42;;;;;;;14.63;11.90;;;18.10;99.90;;;;;;5093543;28;20417;-76
2022/09/06 07:16:23;;;;;;;13.38;11.98;;;18.10;99.90;;;;;;5107623;28;20428;-76
2022/09/06 07:18:53;;;;;;;14.43;12.10;;;18.00;99.90;;;;;;5097086;28;20832;-75
2022/09/06 07:21:25;;;;;;;15.70;12.55;;;18.10;99.90;;;;;;5079031;28;20464;-77
2022/09/06 07:23:51;;;;;;;19.85;12.48;;;18.10;99.90;;;;;;5111207;28;20396;-77
2022/09/06 07:26:23;;;;;;;15.20;12.27;;;17.90;99.90;;;;;;5092911;28;20418;-77
2022/09/06 07:28:55;;;;;;;13.68;11.60;;;18.30;99.90;;;;;;5088557;28;20770;-77
2022/09/06 07:31:21;;;;;;;14.43;12.35;;;18.40;99.90;;;;;;5098820;28;20743;-76
2022/09/06 07:33:48;;;;;;;17.50;12.63;;;18.50;99.90;;;;;;5101312;28;20413;-77
2022/09/06 07:36:14;;;;;;;14.45;12.82;;;;;;;;;;5095729;28;20449;-75
2022/09/06 07:38:39;;;;;;;15.23;12.93;;;18.30;99.90;;;;;;5096284;28;20422;-75
2022/09/06 07:41:08;;;;;;;16.42;12.70;;;18.40;99.90;;;;;;5086570;28;20486;-76
2022/09/06 07:43:34;;;;;;;13.80;12.25;;;;;;;;;;5095495;28;20419;-76
2022/09/06 07:46:01;;;;;;;15.00;13.03;;;18.40;99.90;;;;;;5096030;28;20420;-76
2022/09/06 07:48:29;;;;;;;15.63;13.02;;;18.60;99.90;;;;;;5101138;28;20455;-75
2022/09/06 07:50:55;;;;;;;16.63;13.45;;;;;;;;;;5107656;28;20451;-76
2022/09/06 07:53:21;;;;;;;14.85;13.38;;;;;;;;;;5059144;28;20480;-77
2022/09/06 07:55:47;;;;;;;14.98;13.48;;;18.80;99.90;;;;;;5087248;28;20553;-75
2022/09/06 07:58:12;;;;;;;15.75;14.00;;;19.40;99.90;;;;;;5073678;28;21006;-76
2022/09/06 08:00:39;;;;;;;16.88;13.30;;;19.40;99.90;;;;;;5085709;28;20414;-75
2022/09/06 08:03:05;;;;;;;17.10;13.65;;;19.60;99.90;;;;;;5101341;28;20741;-76
2022/09/06 08:05:31;;;;;;;14.52;13.13;;;19.60;99.90;;;;;;5073054;28;20430;-77
2022/09/06 08:07:57;;;;;;;14.37;12.87;;;19.90;99.90;;;;;;5112257;28;20416;-76
2022/09/06 08:10:22;;;;;;;14.47;13.00;;;20.50;99.90;;;;;;5068017;28;20420;-76
2022/09/06 08:12:52;;;;;;;14.95;12.90;;;20.30;99.90;;;;;;5065409;28;20428;-78
2022/09/06 08:15:17;;;;;;;13.52;12.23;;;20.80;99.90;;;;;;5066581;28;20493;-76
2022/09/06 08:17:50;;;;;;;13.93;12.07;;;20.50;99.90;;;;;;5093729;28;20428;-76
2022/09/06 08:20:16;;;;;;;15.02;12.20;;;21.10;99.90;;;;;;5111187;28;20416;-76
2022/09/06 08:22:42;;;;;;;14.65;12.18;;;20.80;99.90;;;;;;5111619;28;20455;-76
2022/09/06 08:25:09;;;;;;;15.63;12.13;;;20.90;99.90;;;;;;5112144;28;20951;-77
2022/09/06 08:27:35;;;;;;;13.68;12.27;;;20.90;99.90;;;;;;5100713;28;20426;-76
2022/09/06 08:30:01;;;;;;;14.75;12.20;;;20.60;99.90;;;;;;5076558;28;20424;-77
2022/09/06 08:32:27;;;;;;;13.83;12.43;;;;;;;;;;5092901;28;20435;-76
2022/09/06 08:34:52;;;;;;;13.27;11.90;;;20.90;99.90;;;;;;5090277;28;20456;-76
2022/09/06 08:37:18;;;;;;;13.00;11.70;;;;;;;;;;5067263;28;20467;-76
2022/09/06 08:39:44;;;;;;;13.07;11.43;;;21.10;99.90;;;;;;5094738;28;20487;-76
2022/09/06 08:42:11;;;;;;;12.43;11.17;;;21.10;99.90;;;;;;5075444;28;20416;-77
2022/09/06 08:44:41;;;;;;;13.93;11.63;;;21.80;99.90;;;;;;5086073;28;20805;-76
2022/09/06 08:47:09;;;;;;;13.75;11.23;;;21.50;99.90;;;;;;5093651;28;21111;-76
2022/09/06 08:49:51;;;;;;;13.98;11.43;;;21.80;99.90;;;;;;5082090;28;20428;-76
2022/09/06 08:52:26;;;;;;;12.90;11.60;;;22.10;99.90;;;;;;5077571;28;20408;-76
2022/09/06 08:55:36;;;;;;;14.50;11.48;;;21.80;99.90;;;;;;5106185;28;20416;-76
2022/09/06 08:58:04;;;;;;;13.40;10.70;;;21.70;99.90;;;;;;5082964;28;20417;-76
2022/09/06 09:00:33;;;;;;;13.35;11.15;;;21.70;99.90;;;;;;5087847;28;20400;-76
2022/09/06 09:03:29;;;;;;;12.50;10.90;;;21.70;99.90;;;;;;5055723;28;20400;-76
2022/09/06 09:05:55;;;;;;;13.35;11.05;;;22.30;99.90;;;;;;5092011;28;20473;-76
2022/09/06 09:08:27;;;;;;;13.43;10.93;;;22.20;99.90;;;;;;5110067;28;20810;-77
2022/09/06 09:11:04;;;;;;;12.65;11.35;;;22.60;99.90;;;;;;5108994;28;20416;-76
2022/09/06 09:13:53;;;;;;;12.38;11.07;;;22.90;99.90;;;;;;5082673;28;20461;-76
2022/09/06 09:16:20;;;;;;;14.77;11.90;;;23.40;99.90;;;;;;5074194;28;20490;-76
2022/09/06 09:18:49;;;;;;;12.63;11.02;;;23.60;99.90;;;;;;5075305;28;20422;-76
2022/09/06 09:21:20;;;;;;;17.05;10.50;;;23.50;99.90;;;;;;5082641;28;20451;-75
2022/09/06 09:23:54;;;;;;;15.38;10.68;;;23.80;99.90;;;;;;5071252;28;20427;-76
2022/09/06 09:26:23;;;;;;;14.27;11.55;;;23.90;99.90;;;;;;5086451;28;20447;-76
2022/09/06 09:29:09;;;;;;;13.10;10.70;;;24.00;99.90;;;;;;5077734;28;20434;-75
2022/09/06 09:31:39;;;;;;;14.57;11.10;;;24.20;99.90;;;;;;5070414;28;20478;-75
2022/09/06 09:34:25;;;;;;;13.47;11.03;;;23.80;99.90;;;;;;5091199;28;20414;-75
2022/09/06 09:37:11;;;;;;;15.20;10.77;;;24.10;99.90;;;;;;5079976;28;20430;-75
2022/09/06 09:39:38;;;;;;;13.53;9.80;;;24.40;99.90;;;;;;5067970;28;20494;-76
2022/09/06 09:42:05;;;;;;;12.40;9.68;;;24.40;99.90;;;;;;5069469;28;20421;-75
2022/09/06 09:44:32;;;;;;;15.15;9.23;;;24.70;99.90;;;;;;5091656;28;20945;-76
2022/09/06 09:46:58;;;;;;;10.00;9.02;;;24.70;99.90;;;;;;5089898;28;20640;-75
2022/09/06 09:49:24;;;;;;;12.93;9.75;;;24.50;99.90;;;;;;5090194;28;20419;-75
2022/09/06 09:52:22;;;;;;;11.68;8.93;;;24.60;99.90;;;;;;5085934;28;20417;-75
2022/09/06 09:54:52;;;;;;;10.80;8.90;;;24.90;99.90;;;;;;5091341;28;20421;-75
2022/09/06 09:57:18;;;;;;;11.18;8.05;;;24.80;99.90;;;;;;5048171;28;20481;-75
2022/09/06 10:00:01;;;;;;;9.77;8.55;;;24.80;99.90;;;;;;5055989;28;20825;-76
2022/09/06 10:02:39;;;;;;;14.57;7.80;;;25.00;99.90;;;;;;5060897;28;20458;-76
2022/09/06 10:05:11;;;;;;;9.27;8.30;;;25.00;99.90;;;;;;5074618;28;20432;-75
2022/09/06 10:07:45;;;;;;;9.53;6.90;;;25.30;99.90;;;;;;5079506;28;20427;-76
2022/09/06 10:10:37;;;;;;;10.68;6.95;;;25.20;99.90;;;;;;5065108;28;20432;-76
2022/09/06 10:13:30;;;;;;;9.43;6.40;;;25.30;99.90;;;;;;5067533;28;20427;-76
2022/09/06 10:15:58;;;;;;;10.60;6.75;;;25.50;99.90;;;;;;5075156;28;20418;-75
2022/09/06 10:18:29;;;;;;;7.00;6.30;;;25.40;99.90;;;;;;5091042;28;20422;-75
2022/09/06 10:21:03;;;;;;;9.57;6.65;;;25.60;99.90;;;;;;5085543;28;20425;-75
2022/09/06 10:23:38;;;;;;;9.30;6.37;;;25.70;99.90;;;;;;5068802;28;20430;-76
2022/09/06 10:26:08;;;;;;;8.27;6.28;;;25.80;99.90;;;;;;5065203;28;20494;-76
2022/09/06 10:28:38;;;;;;;7.50;5.50;;;26.00;99.90;;;;;;5071352;28;20914;-75
2022/09/06 10:31:08;;;;;;;6.50;5.18;;;26.30;99.90;;;;;;5054835;28;20424;-76
2022/09/06 10:34:09;;;;;;;7.40;5.10;;;26.30;99.90;;;;;;5080416;28;20420;-76
2022/09/06 10:37:30;;;;;;;7.60;4.72;;;26.30;99.90;;;;;;5045282;28;20437;-76
2022/09/06 10:40:09;;;;;;;7.25;4.95;;;26.10;99.90;;;;;;5012398;28;20504;-76
2022/09/06 10:42:51;;;;;;;6.00;4.90;;;26.10;99.90;;;;;;5072055;28;20422;-76
2022/09/06 10:45:41;;;;;;;7.20;5.10;;;26.30;99.90;;;;;;5051226;28;20558;-76
2022/09/06 10:48:30;;;;;;;7.25;4.55;;;26.80;99.90;;;;;;5068841;28;20942;-76
2022/09/06 10:51:10;;;;;;;8.05;5.20;;;26.60;99.90;;;;;;5082769;28;20429;-83
2022/09/06 10:54:15;;;;;;;7.25;4.93;;;26.70;99.90;;;;;;5080117;28;20580;-79
2022/09/06 10:56:55;;;;;;;8.00;4.90;;;26.60;99.90;;;;;;5057896;28;20444;-78
2022/09/06 10:59:31;;;;;;;6.27;4.30;;;26.60;99.90;;;;;;5057987;28;20431;-78
2022/09/06 11:02:38;;;;;;;8.10;4.20;;;26.70;99.90;;;;;;5075574;28;20533;-78
2022/09/06 11:05:15;;;;;;;5.93;4.10;;;26.50;99.90;;;;;;5050157;28;20897;-78
2022/09/06 11:07:43;;;;;;;8.77;4.90;;;26.50;99.90;;;;;;5071543;28;20763;-79
2022/09/06 11:10:20;;;;;;;7.80;4.90;;;26.50;99.90;;;;;;5066408;28;20431;-79
2022/09/06 11:13:08;;;;;;;7.07;4.80;;;25.50;99.90;;;;;;5058988;28;20485;-79
2022/09/06 11:15:59;;;;;;;6.50;5.00;;;26.70;99.90;;;;;;5070005;28;20416;-79
2022/09/06 11:19:04;;;;;;;8.63;4.20;;;26.80;99.90;;;;;;5095047;28;20798;-80
2022/09/06 11:21:33;;;;;;;8.50;4.50;;;26.90;99.90;;;;;;5034747;28;20471;-79
2022/09/06 11:24:12;;;;;;;7.47;4.30;;;27.60;99.90;;;;;;5093014;28;20508;-80
2022/09/06 11:27:04;;;;;;;8.02;4.40;;;27.40;99.90;;;;;;5099014;28;20423;-80
2022/09/06 11:29:32;;;;;;;6.80;5.10;;;26.80;99.90;;;;;;5076829;28;20421;-78
2022/09/06 11:32:00;;;;;;;6.78;4.50;;;27.10;99.90;;;;;;5076162;28;20562;-78
2022/09/06 11:34:29;;;;;;;10.77;4.93;;;27.30;99.90;;;;;;5092269;28;20484;-79
2022/09/06 11:37:01;;;;;;;7.43;4.78;;;27.60;99.90;;;;;;5089519;28;20432;-78
2022/09/06 11:39:40;;;;;;;9.23;4.40;;;28.50;99.90;;;;;;5076398;28;20468;-80
2022/09/06 11:42:08;;;;;;;8.13;4.40;;;27.40;99.90;;;;;;5071321;28;20440;-79
2022/09/06 11:44:49;;;;;;;10.27;5.03;;;27.30;99.90;;;;;;5084349;28;20415;-79
2022/09/06 11:47:44;;;;;;;7.38;4.40;;;27.50;99.90;;;;;;5072878;28;20943;-79
2022/09/06 11:50:38;;;;;;;4.78;3.90;;;27.50;99.90;;;;;;5101301;28;20404;-79
2022/09/06 11:53:14;;;;;;;6.47;4.20;;;27.40;99.90;;;;;;5109187;28;20760;-80
2022/09/06 11:56:09;;;;;;;6.07;4.13;;;27.30;99.90;;;;;;5075257;28;20414;-80
2022/09/06 11:58:41;;;;;;;6.75;4.30;;;27.40;99.90;;;;;;5076039;28;20440;-79
2022/09/06 12:01:27;;;;;;;5.70;4.28;;;27.40;99.90;;;;;;5077491;28;20406;-79
2022/09/06 12:03:54;;;;;;;7.87;4.00;;;27.50;99.90;;;;;;5082764;28;20420;-79
2022/09/06 12:06:32;;;;;;;8.25;4.20;;;28.00;99.90;;;;;;5114199;28;20461;-79
2022/09/06 12:08:59;;;;;;;7.43;4.20;;;27.30;99.90;;;;;;5105665;28;20450;-79
2022/09/06 12:11:42;;;;;;;5.50;3.92;;;27.50;99.90;;;;;;5083658;28;20427;-80
2022/09/06 12:14:30;;;;;;;6.38;3.50;;;27.40;99.90;;;;;;5064121;28;20493;-79
2022/09/06 12:17:03;;;;;;;4.68;3.10;;;28.90;99.90;;;;;;5090300;28;20432;-80
2022/09/06 12:20:04;;;;;;;7.35;3.10;;;28.10;99.90;;;;;;5077261;28;20396;-78
2022/09/06 12:22:34;;;;;;;8.38;3.50;;;28.90;99.90;;;;;;5113966;28;20427;-79
2022/09/06 12:25:04;;;;;;;6.22;3.40;;;28.70;99.90;;;;;;5114367;28;20420;-79
2022/09/06 12:27:33;;;;;;;5.13;2.97;;;28.20;99.90;;;;;;5114086;28;20445;-79
2022/09/06 12:30:00;;;;;;;7.05;3.53;;;28.30;99.90;;;;;;5097143;28;20397;-79
2022/09/06 12:32:37;;;;;;;6.30;3.40;;;28.80;99.90;;;;;;5096752;28;20424;-79
2022/09/06 12:35:17;;;;;;;6.18;3.42;;;28.80;99.90;;;;;;5101123;28;20502;-80
2022/09/06 12:37:55;;;;;;;6.53;3.40;;;29.00;99.90;;;;;;5088654;28;20424;-78
2022/09/06 12:40:23;;;;;;;5.63;3.53;;;28.60;99.90;;;;;;5056955;28;20411;-79
2022/09/06 12:42:52;;;;;;;4.45;3.30;;;29.30;99.90;;;;;;5082579;28;20817;-82
2022/09/06 12:45:20;;;;;;;7.53;3.30;;;29.20;99.90;;;;;;5089486;28;20417;-79
2022/09/06 12:47:46;;;;;;;5.75;3.30;;;29.00;99.90;;;;;;5076843;28;20406;-78
2022/09/06 12:50:24;;;;;;;5.32;3.20;;;29.00;99.90;;;;;;5059188;28;20402;-79
2022/09/06 12:53:23;;;;;;;9.00;3.50;;;29.00;99.90;;;;;;5075874;28;20429;-83
2022/09/06 12:56:08;;;;;;;7.05;4.57;;;29.10;99.90;;;;;;5081005;28;20938;-79
2022/09/06 12:58:38;;;;;;;6.03;4.28;;;29.00;99.90;;;;;;5069384;28;20511;-80
2022/09/06 13:01:36;;;;;;;5.50;4.50;;;28.80;99.90;;;;;;5113408;28;20393;-79
2022/09/06 13:04:17;;;;;;;7.28;4.28;;;28.30;99.90;;;;;;5102257;28;20493;-77
2022/09/06 13:06:48;;;;;;;7.00;4.18;;;28.60;99.90;;;;;;5075701;28;20432;-78
2022/09/06 13:09:17;;;;;;;5.85;4.18;;;28.60;99.90;;;;;;5070957;28;20874;-79
2022/09/06 13:11:57;;;;;;;8.18;4.63;;;28.50;99.90;;;;;;5096475;28;20400;-78
2022/09/06 13:14:33;;;;;;;7.32;4.90;;;28.30;99.90;;;;;;5081682;28;20461;-78
2022/09/06 13:16:59;;;;;;;6.68;4.38;;;28.60;99.90;;;;;;5086477;28;20916;-78